sensor_id;sensor_type;location;lat;lon;timestamp;P1;durP1;ratioP1;P2;durP2;ratioP2
30307;SDS011;17114;52.314;8.910;2022-08-03T00:01:34;5.38;;;4.88;;
30307;SDS011;17114;52.314;8.910;2022-08-03T00:04:02;5.30;;;4.80;;
30307;SDS011;17114;52.314;8.910;2022-08-03T00:06:30;7.15;;;5.07;;
30307;SDS011;17114;52.314;8.910;2022-08-03T00:09:02;6.15;;;5.15;;
30307;SDS011;17114;52.314;8.910;2022-08-03T00:11:30;7.68;;;5.30;;
30307;SDS011;17114;52.314;8.910;2022-08-03T00:13:57;5.72;;;4.97;;
30307;SDS011;17114;52.314;8.910;2022-08-03T00:16:24;6.95;;;5.13;;
30307;SDS011;17114;52.314;8.910;2022-08-03T00:18:51;7.72;;;5.00;;
30307;SDS011;17114;52.314;8.910;2022-08-03T00:21:18;6.13;;;4.78;;
30307;SDS011;17114;52.314;8.910;2022-08-03T00:23:45;5.50;;;4.93;;
30307;SDS011;17114;52.314;8.910;2022-08-03T00:26:17;7.88;;;5.57;;
30307;SDS011;17114;52.314;8.910;2022-08-03T00:28:50;5.45;;;4.70;;
30307;SDS011;17114;52.314;8.910;2022-08-03T00:31:17;7.68;;;5.05;;
30307;SDS011;17114;52.314;8.910;2022-08-03T00:34:04;5.55;;;4.95;;
30307;SDS011;17114;52.314;8.910;2022-08-03T00:36:32;5.40;;;4.30;;
30307;SDS011;17114;52.314;8.910;2022-08-03T00:38:59;7.72;;;4.72;;
30307;SDS011;17114;52.314;8.910;2022-08-03T00:41:26;6.88;;;4.65;;
30307;SDS011;17114;52.314;8.910;2022-08-03T00:43:53;7.07;;;4.40;;
30307;SDS011;17114;52.314;8.910;2022-08-03T00:46:20;8.63;;;4.85;;
30307;SDS011;17114;52.314;8.910;2022-08-03T00:48:48;5.32;;;4.63;;
30307;SDS011;17114;52.314;8.910;2022-08-03T00:51:15;8.40;;;4.70;;
30307;SDS011;17114;52.314;8.910;2022-08-03T00:53:43;5.70;;;4.78;;
30307;SDS011;17114;52.314;8.910;2022-08-03T00:56:14;9.77;;;4.65;;
30307;SDS011;17114;52.314;8.910;2022-08-03T00:58:42;5.43;;;4.45;;
30307;SDS011;17114;52.314;8.910;2022-08-03T01:01:10;10.70;;;4.68;;
30307;SDS011;17114;52.314;8.910;2022-08-03T01:03:38;10.63;;;4.20;;
30307;SDS011;17114;52.314;8.910;2022-08-03T01:11:46;4.68;;;3.70;;
30307;SDS011;17114;52.314;8.910;2022-08-03T01:16:58;6.25;;;4.05;;
30307;SDS011;17114;52.314;8.910;2022-08-03T01:30:14;7.95;;;4.18;;
30307;SDS011;17114;52.314;8.910;2022-08-03T01:33:25;8.15;;;4.30;;
30307;SDS011;17114;52.314;8.910;2022-08-03T01:36:02;5.93;;;3.90;;
30307;SDS011;17114;52.314;8.910;2022-08-03T01:38:33;5.65;;;4.20;;
30307;SDS011;17114;52.314;8.910;2022-08-03T01:41:06;5.65;;;4.15;;
30307;SDS011;17114;52.314;8.910;2022-08-03T01:43:37;5.88;;;3.80;;
30307;SDS011;17114;52.314;8.910;2022-08-03T01:46:35;5.75;;;4.03;;
30307;SDS011;17114;52.314;8.910;2022-08-03T01:49:16;6.20;;;4.03;;
30307;SDS011;17114;52.314;8.910;2022-08-03T01:51:44;4.28;;;3.60;;
30307;SDS011;17114;52.314;8.910;2022-08-03T01:56:58;6.53;;;4.25;;
30307;SDS011;17114;52.314;8.910;2022-08-03T01:59:25;5.15;;;3.97;;
30307;SDS011;17114;52.314;8.910;2022-08-03T02:01:54;6.88;;;3.97;;
30307;SDS011;17114;52.314;8.910;2022-08-03T02:04:43;4.53;;;3.80;;
30307;SDS011;17114;52.314;8.910;2022-08-03T02:07:13;7.72;;;4.30;;
30307;SDS011;17114;52.314;8.910;2022-08-03T02:09:42;4.57;;;3.95;;
30307;SDS011;17114;52.314;8.910;2022-08-03T02:12:12;6.88;;;4.03;;
30307;SDS011;17114;52.314;8.910;2022-08-03T02:14:41;7.22;;;4.18;;
30307;SDS011;17114;52.314;8.910;2022-08-03T02:17:09;5.82;;;4.03;;
30307;SDS011;17114;52.314;8.910;2022-08-03T02:19:39;4.95;;;4.13;;
30307;SDS011;17114;52.314;8.910;2022-08-03T02:22:09;8.93;;;4.13;;
30307;SDS011;17114;52.314;8.910;2022-08-03T02:24:38;9.23;;;4.20;;
30307;SDS011;17114;52.314;8.910;2022-08-03T02:27:06;9.63;;;4.20;;
30307;SDS011;17114;52.314;8.910;2022-08-03T02:29:41;8.10;;;4.15;;
30307;SDS011;17114;52.314;8.910;2022-08-03T02:32:12;5.63;;;3.67;;
30307;SDS011;17114;52.314;8.910;2022-08-03T02:34:45;6.13;;;4.38;;
30307;SDS011;17114;52.314;8.910;2022-08-03T02:37:17;4.78;;;3.78;;
30307;SDS011;17114;52.314;8.910;2022-08-03T02:39:44;5.50;;;4.10;;
30307;SDS011;17114;52.314;8.910;2022-08-03T02:42:13;7.38;;;4.28;;
30307;SDS011;17114;52.314;8.910;2022-08-03T02:44:41;4.72;;;4.10;;
30307;SDS011;17114;52.314;8.910;2022-08-03T02:47:13;8.13;;;4.40;;
30307;SDS011;17114;52.314;8.910;2022-08-03T02:49:42;5.32;;;4.35;;
30307;SDS011;17114;52.314;8.910;2022-08-03T02:54:50;9.07;;;4.45;;
30307;SDS011;17114;52.314;8.910;2022-08-03T02:57:20;6.97;;;4.35;;
30307;SDS011;17114;52.314;8.910;2022-08-03T02:59:48;7.47;;;4.43;;
30307;SDS011;17114;52.314;8.910;2022-08-03T03:02:17;7.82;;;4.45;;
30307;SDS011;17114;52.314;8.910;2022-08-03T03:04:45;6.82;;;3.97;;
30307;SDS011;17114;52.314;8.910;2022-08-03T03:07:35;6.13;;;4.10;;
30307;SDS011;17114;52.314;8.910;2022-08-03T03:10:21;5.05;;;4.20;;
30307;SDS011;17114;52.314;8.910;2022-08-03T03:12:49;9.75;;;4.95;;
30307;SDS011;17114;52.314;8.910;2022-08-03T03:15:18;8.80;;;4.82;;
30307;SDS011;17114;52.314;8.910;2022-08-03T03:17:46;6.40;;;4.30;;
30307;SDS011;17114;52.314;8.910;2022-08-03T03:20:17;6.18;;;4.65;;
30307;SDS011;17114;52.314;8.910;2022-08-03T03:22:56;6.15;;;4.40;;
30307;SDS011;17114;52.314;8.910;2022-08-03T03:25:26;5.40;;;4.20;;
30307;SDS011;17114;52.314;8.910;2022-08-03T03:27:55;6.13;;;4.35;;
30307;SDS011;17114;52.314;8.910;2022-08-03T03:30:23;7.72;;;4.85;;
30307;SDS011;17114;52.314;8.910;2022-08-03T03:32:51;7.22;;;4.53;;
30307;SDS011;17114;52.314;8.910;2022-08-03T03:35:19;6.43;;;4.43;;
30307;SDS011;17114;52.314;8.910;2022-08-03T03:37:46;9.48;;;4.82;;
30307;SDS011;17114;52.314;8.910;2022-08-03T03:40:13;7.15;;;4.40;;
30307;SDS011;17114;52.314;8.910;2022-08-03T03:42:40;5.97;;;4.90;;
30307;SDS011;17114;52.314;8.910;2022-08-03T03:45:07;4.93;;;4.20;;
30307;SDS011;17114;52.314;8.910;2022-08-03T03:47:34;6.38;;;4.40;;
30307;SDS011;17114;52.314;8.910;2022-08-03T03:50:02;8.23;;;4.25;;
30307;SDS011;17114;52.314;8.910;2022-08-03T03:52:31;6.50;;;4.00;;
30307;SDS011;17114;52.314;8.910;2022-08-03T03:54:59;8.77;;;4.55;;
30307;SDS011;17114;52.314;8.910;2022-08-03T03:57:27;5.43;;;4.57;;
30307;SDS011;17114;52.314;8.910;2022-08-03T03:59:54;5.55;;;4.20;;
30307;SDS011;17114;52.314;8.910;2022-08-03T04:02:21;7.63;;;4.35;;
30307;SDS011;17114;52.314;8.910;2022-08-03T04:04:48;5.07;;;4.57;;
30307;SDS011;17114;52.314;8.910;2022-08-03T04:07:36;6.57;;;5.00;;
30307;SDS011;17114;52.314;8.910;2022-08-03T04:11:00;7.85;;;4.43;;
30307;SDS011;17114;52.314;8.910;2022-08-03T04:13:53;6.22;;;4.57;;
30307;SDS011;17114;52.314;8.910;2022-08-03T04:16:19;4.97;;;4.03;;
30307;SDS011;17114;52.314;8.910;2022-08-03T04:18:50;7.07;;;4.50;;
30307;SDS011;17114;52.314;8.910;2022-08-03T04:21:20;6.35;;;4.40;;
30307;SDS011;17114;52.314;8.910;2022-08-03T04:23:50;5.32;;;4.00;;
30307;SDS011;17114;52.314;8.910;2022-08-03T04:26:20;6.43;;;4.57;;
30307;SDS011;17114;52.314;8.910;2022-08-03T04:28:49;6.47;;;4.35;;
30307;SDS011;17114;52.314;8.910;2022-08-03T04:31:19;8.57;;;4.50;;
30307;SDS011;17114;52.314;8.910;2022-08-03T04:33:49;7.07;;;4.38;;
30307;SDS011;17114;52.314;8.910;2022-08-03T04:36:21;7.75;;;4.35;;
30307;SDS011;17114;52.314;8.910;2022-08-03T04:41:32;5.47;;;4.40;;
30307;SDS011;17114;52.314;8.910;2022-08-03T04:44:22;9.60;;;4.00;;
30307;SDS011;17114;52.314;8.910;2022-08-03T04:46:53;8.40;;;4.10;;
30307;SDS011;17114;52.314;8.910;2022-08-03T04:49:22;8.55;;;4.00;;
30307;SDS011;17114;52.314;8.910;2022-08-03T04:51:50;4.40;;;3.97;;
30307;SDS011;17114;52.314;8.910;2022-08-03T04:54:18;7.97;;;3.78;;
30307;SDS011;17114;52.314;8.910;2022-08-03T04:56:45;9.80;;;3.92;;
30307;SDS011;17114;52.314;8.910;2022-08-03T04:59:12;12.40;;;4.10;;
30307;SDS011;17114;52.314;8.910;2022-08-03T05:01:39;6.95;;;3.85;;
30307;SDS011;17114;52.314;8.910;2022-08-03T05:04:07;5.72;;;3.75;;
30307;SDS011;17114;52.314;8.910;2022-08-03T05:06:34;5.95;;;3.60;;
30307;SDS011;17114;52.314;8.910;2022-08-03T05:09:10;4.50;;;4.10;;
30307;SDS011;17114;52.314;8.910;2022-08-03T05:11:39;5.05;;;3.20;;
30307;SDS011;17114;52.314;8.910;2022-08-03T05:14:06;6.15;;;3.40;;
30307;SDS011;17114;52.314;8.910;2022-08-03T05:16:33;4.38;;;3.22;;
30307;SDS011;17114;52.314;8.910;2022-08-03T05:19:03;6.47;;;3.17;;
30307;SDS011;17114;52.314;8.910;2022-08-03T05:21:39;5.20;;;2.97;;
30307;SDS011;17114;52.314;8.910;2022-08-03T05:24:17;4.90;;;2.80;;
30307;SDS011;17114;52.314;8.910;2022-08-03T05:26:54;4.30;;;3.28;;
30307;SDS011;17114;52.314;8.910;2022-08-03T05:29:24;5.43;;;3.25;;
30307;SDS011;17114;52.314;8.910;2022-08-03T05:31:54;9.05;;;3.33;;
30307;SDS011;17114;52.314;8.910;2022-08-03T05:34:21;5.75;;;3.15;;
30307;SDS011;17114;52.314;8.910;2022-08-03T05:36:48;7.70;;;3.30;;
30307;SDS011;17114;52.314;8.910;2022-08-03T05:39:15;3.45;;;2.75;;
30307;SDS011;17114;52.314;8.910;2022-08-03T05:41:42;5.97;;;2.75;;
30307;SDS011;17114;52.314;8.910;2022-08-03T05:44:09;4.97;;;2.92;;
30307;SDS011;17114;52.314;8.910;2022-08-03T05:46:38;6.72;;;2.83;;
30307;SDS011;17114;52.314;8.910;2022-08-03T05:49:05;3.28;;;2.67;;
30307;SDS011;17114;52.314;8.910;2022-08-03T05:51:32;5.00;;;3.00;;
30307;SDS011;17114;52.314;8.910;2022-08-03T05:53:59;5.07;;;2.70;;
30307;SDS011;17114;52.314;8.910;2022-08-03T05:56:27;4.78;;;2.80;;
30307;SDS011;17114;52.314;8.910;2022-08-03T05:58:54;4.15;;;2.45;;
30307;SDS011;17114;52.314;8.910;2022-08-03T06:01:41;5.78;;;3.10;;
30307;SDS011;17114;52.314;8.910;2022-08-03T06:04:08;6.38;;;2.90;;
30307;SDS011;17114;52.314;8.910;2022-08-03T06:06:36;11.93;;;2.67;;
30307;SDS011;17114;52.314;8.910;2022-08-03T06:09:03;6.70;;;2.70;;
30307;SDS011;17114;52.314;8.910;2022-08-03T06:11:33;4.35;;;2.65;;
30307;SDS011;17114;52.314;8.910;2022-08-03T06:14:00;4.05;;;2.30;;
30307;SDS011;17114;52.314;8.910;2022-08-03T06:16:28;4.63;;;2.70;;
30307;SDS011;17114;52.314;8.910;2022-08-03T06:18:55;4.40;;;2.58;;
30307;SDS011;17114;52.314;8.910;2022-08-03T06:21:22;3.65;;;2.55;;
30307;SDS011;17114;52.314;8.910;2022-08-03T06:23:52;4.70;;;2.22;;
30307;SDS011;17114;52.314;8.910;2022-08-03T06:26:21;5.03;;;2.50;;
30307;SDS011;17114;52.314;8.910;2022-08-03T06:28:49;4.20;;;2.30;;
30307;SDS011;17114;52.314;8.910;2022-08-03T06:31:19;3.45;;;2.25;;
30307;SDS011;17114;52.314;8.910;2022-08-03T06:33:49;6.53;;;2.38;;
30307;SDS011;17114;52.314;8.910;2022-08-03T06:36:36;5.45;;;2.80;;
30307;SDS011;17114;52.314;8.910;2022-08-03T06:39:03;3.42;;;2.08;;
30307;SDS011;17114;52.314;8.910;2022-08-03T06:41:30;4.75;;;2.88;;
30307;SDS011;17114;52.314;8.910;2022-08-03T06:44:03;3.78;;;2.70;;
30307;SDS011;17114;52.314;8.910;2022-08-03T06:46:30;4.30;;;2.25;;
30307;SDS011;17114;52.314;8.910;2022-08-03T06:48:57;4.57;;;2.60;;
30307;SDS011;17114;52.314;8.910;2022-08-03T06:51:24;7.00;;;2.53;;
30307;SDS011;17114;52.314;8.910;2022-08-03T06:54:11;6.28;;;2.20;;
30307;SDS011;17114;52.314;8.910;2022-08-03T06:56:39;5.50;;;2.25;;
30307;SDS011;17114;52.314;8.910;2022-08-03T06:59:06;4.90;;;2.03;;
30307;SDS011;17114;52.314;8.910;2022-08-03T07:01:33;4.55;;;2.40;;
30307;SDS011;17114;52.314;8.910;2022-08-03T07:04:00;6.63;;;2.63;;
30307;SDS011;17114;52.314;8.910;2022-08-03T07:06:26;4.40;;;1.90;;
30307;SDS011;17114;52.314;8.910;2022-08-03T07:08:54;6.82;;;1.80;;
30307;SDS011;17114;52.314;8.910;2022-08-03T07:11:25;3.00;;;1.80;;
30307;SDS011;17114;52.314;8.910;2022-08-03T07:13:53;2.90;;;1.98;;
30307;SDS011;17114;52.314;8.910;2022-08-03T07:16:21;8.43;;;1.88;;
30307;SDS011;17114;52.314;8.910;2022-08-03T07:18:48;3.03;;;1.70;;
30307;SDS011;17114;52.314;8.910;2022-08-03T07:21:16;4.68;;;2.28;;
30307;SDS011;17114;52.314;8.910;2022-08-03T07:23:46;4.03;;;1.88;;
30307;SDS011;17114;52.314;8.910;2022-08-03T07:26:13;4.88;;;1.88;;
30307;SDS011;17114;52.314;8.910;2022-08-03T07:28:40;5.82;;;1.90;;
30307;SDS011;17114;52.314;8.910;2022-08-03T07:31:07;6.03;;;2.22;;
30307;SDS011;17114;52.314;8.910;2022-08-03T07:33:34;5.05;;;1.80;;
30307;SDS011;17114;52.314;8.910;2022-08-03T07:36:01;4.78;;;2.05;;
30307;SDS011;17114;52.314;8.910;2022-08-03T07:38:27;4.70;;;1.90;;
30307;SDS011;17114;52.314;8.910;2022-08-03T07:40:55;8.30;;;2.75;;
30307;SDS011;17114;52.314;8.910;2022-08-03T07:43:22;3.30;;;1.80;;
30307;SDS011;17114;52.314;8.910;2022-08-03T07:45:49;3.80;;;1.83;;
30307;SDS011;17114;52.314;8.910;2022-08-03T07:48:16;3.10;;;1.85;;
30307;SDS011;17114;52.314;8.910;2022-08-03T07:50:43;5.07;;;2.15;;
30307;SDS011;17114;52.314;8.910;2022-08-03T07:53:10;7.22;;;2.20;;
30307;SDS011;17114;52.314;8.910;2022-08-03T07:55:37;5.43;;;1.88;;
30307;SDS011;17114;52.314;8.910;2022-08-03T07:58:08;6.72;;;2.08;;
30307;SDS011;17114;52.314;8.910;2022-08-03T08:00:48;7.32;;;2.03;;
30307;SDS011;17114;52.314;8.910;2022-08-03T08:03:18;4.43;;;2.28;;
30307;SDS011;17114;52.314;8.910;2022-08-03T08:05:47;3.35;;;1.77;;
30307;SDS011;17114;52.314;8.910;2022-08-03T08:08:14;4.65;;;2.10;;
30307;SDS011;17114;52.314;8.910;2022-08-03T08:10:41;5.00;;;1.85;;
30307;SDS011;17114;52.314;8.910;2022-08-03T08:13:24;4.45;;;2.03;;
30307;SDS011;17114;52.314;8.910;2022-08-03T08:15:50;5.95;;;2.38;;
30307;SDS011;17114;52.314;8.910;2022-08-03T08:18:17;4.75;;;1.90;;
30307;SDS011;17114;52.314;8.910;2022-08-03T08:20:44;9.02;;;1.98;;
30307;SDS011;17114;52.314;8.910;2022-08-03T08:23:11;5.40;;;1.85;;
30307;SDS011;17114;52.314;8.910;2022-08-03T08:25:58;5.53;;;1.70;;
30307;SDS011;17114;52.314;8.910;2022-08-03T08:28:25;4.55;;;2.15;;
30307;SDS011;17114;52.314;8.910;2022-08-03T08:30:58;3.05;;;1.80;;
30307;SDS011;17114;52.314;8.910;2022-08-03T08:33:25;5.93;;;2.60;;
30307;SDS011;17114;52.314;8.910;2022-08-03T08:36:07;4.82;;;2.30;;
30307;SDS011;17114;52.314;8.910;2022-08-03T08:38:40;5.15;;;1.70;;
30307;SDS011;17114;52.314;8.910;2022-08-03T08:41:08;5.35;;;1.83;;
30307;SDS011;17114;52.314;8.910;2022-08-03T08:43:36;4.75;;;2.05;;
30307;SDS011;17114;52.314;8.910;2022-08-03T08:46:03;3.35;;;1.80;;
30307;SDS011;17114;52.314;8.910;2022-08-03T08:48:34;4.63;;;1.73;;
30307;SDS011;17114;52.314;8.910;2022-08-03T08:51:04;5.47;;;2.00;;
30307;SDS011;17114;52.314;8.910;2022-08-03T08:53:35;4.55;;;1.77;;
30307;SDS011;17114;52.314;8.910;2022-08-03T08:56:03;9.88;;;2.30;;
30307;SDS011;17114;52.314;8.910;2022-08-03T08:58:36;6.43;;;1.63;;
30307;SDS011;17114;52.314;8.910;2022-08-03T09:01:07;2.95;;;1.80;;
30307;SDS011;17114;52.314;8.910;2022-08-03T09:03:34;3.85;;;2.00;;
30307;SDS011;17114;52.314;8.910;2022-08-03T09:06:01;3.25;;;1.60;;
30307;SDS011;17114;52.314;8.910;2022-08-03T09:08:29;8.15;;;1.88;;
30307;SDS011;17114;52.314;8.910;2022-08-03T09:10:58;5.57;;;1.60;;
30307;SDS011;17114;52.314;8.910;2022-08-03T09:13:25;3.58;;;1.88;;
30307;SDS011;17114;52.314;8.910;2022-08-03T09:16:11;5.20;;;1.77;;
30307;SDS011;17114;52.314;8.910;2022-08-03T09:18:49;4.95;;;1.70;;
30307;SDS011;17114;52.314;8.910;2022-08-03T09:24:02;3.42;;;1.65;;
30307;SDS011;17114;52.314;8.910;2022-08-03T09:26:38;8.13;;;1.70;;
30307;SDS011;17114;52.314;8.910;2022-08-03T09:29:06;8.35;;;1.60;;
30307;SDS011;17114;52.314;8.910;2022-08-03T09:34:10;5.72;;;1.73;;
30307;SDS011;17114;52.314;8.910;2022-08-03T09:36:45;2.90;;;1.90;;
30307;SDS011;17114;52.314;8.910;2022-08-03T09:39:17;4.32;;;1.73;;
30307;SDS011;17114;52.314;8.910;2022-08-03T09:42:09;4.07;;;1.95;;
30307;SDS011;17114;52.314;8.910;2022-08-03T09:44:50;5.40;;;1.85;;
30307;SDS011;17114;52.314;8.910;2022-08-03T09:49:58;6.05;;;1.52;;
30307;SDS011;17114;52.314;8.910;2022-08-03T09:52:37;4.03;;;1.67;;
30307;SDS011;17114;52.314;8.910;2022-08-03T09:55:18;8.65;;;1.85;;
30307;SDS011;17114;52.314;8.910;2022-08-03T09:58:08;6.05;;;1.58;;
30307;SDS011;17114;52.314;8.910;2022-08-03T10:03:22;4.95;;;1.77;;
30307;SDS011;17114;52.314;8.910;2022-08-03T10:05:53;5.80;;;1.90;;
30307;SDS011;17114;52.314;8.910;2022-08-03T10:08:25;4.78;;;1.77;;
30307;SDS011;17114;52.314;8.910;2022-08-03T10:10:52;2.95;;;1.75;;
30307;SDS011;17114;52.314;8.910;2022-08-03T10:13:20;5.25;;;1.80;;
30307;SDS011;17114;52.314;8.910;2022-08-03T10:15:48;4.65;;;2.00;;
30307;SDS011;17114;52.314;8.910;2022-08-03T10:18:35;4.30;;;1.90;;
30307;SDS011;17114;52.314;8.910;2022-08-03T10:21:03;9.02;;;2.10;;
30307;SDS011;17114;52.314;8.910;2022-08-03T10:23:33;7.75;;;2.20;;
30307;SDS011;17114;52.314;8.910;2022-08-03T10:26:01;3.97;;;1.83;;
30307;SDS011;17114;52.314;8.910;2022-08-03T10:28:33;5.55;;;1.95;;
30307;SDS011;17114;52.314;8.910;2022-08-03T10:31:08;4.85;;;1.98;;
30307;SDS011;17114;52.314;8.910;2022-08-03T10:33:41;5.95;;;2.03;;
30307;SDS011;17114;52.314;8.910;2022-08-03T10:36:17;6.30;;;1.98;;
30307;SDS011;17114;52.314;8.910;2022-08-03T10:38:49;4.32;;;1.90;;
30307;SDS011;17114;52.314;8.910;2022-08-03T10:41:19;5.78;;;1.80;;
30307;SDS011;17114;52.314;8.910;2022-08-03T10:46:29;4.65;;;2.05;;
30307;SDS011;17114;52.314;8.910;2022-08-03T10:48:56;5.45;;;2.35;;
30307;SDS011;17114;52.314;8.910;2022-08-03T10:51:24;3.97;;;1.55;;
30307;SDS011;17114;52.314;8.910;2022-08-03T10:53:55;8.52;;;2.05;;
30307;SDS011;17114;52.314;8.910;2022-08-03T11:00:02;4.32;;;1.65;;
30307;SDS011;17114;52.314;8.910;2022-08-03T11:02:12;6.15;;;1.77;;
30307;SDS011;17114;52.314;8.910;2022-08-03T11:04:41;3.83;;;1.70;;
30307;SDS011;17114;52.314;8.910;2022-08-03T11:09:45;8.00;;;1.85;;
30307;SDS011;17114;52.314;8.910;2022-08-03T11:15:07;4.45;;;1.70;;
30307;SDS011;17114;52.314;8.910;2022-08-03T11:17:34;6.15;;;2.25;;
30307;SDS011;17114;52.314;8.910;2022-08-03T11:23:14;5.32;;;1.85;;
30307;SDS011;17114;52.314;8.910;2022-08-03T11:26:24;6.43;;;1.70;;
30307;SDS011;17114;52.314;8.910;2022-08-03T11:28:51;4.00;;;1.98;;
30307;SDS011;17114;52.314;8.910;2022-08-03T11:34:08;5.50;;;1.98;;
30307;SDS011;17114;52.314;8.910;2022-08-03T11:39:43;5.17;;;1.83;;
30307;SDS011;17114;52.314;8.910;2022-08-03T11:44:54;5.45;;;2.13;;
30307;SDS011;17114;52.314;8.910;2022-08-03T11:47:23;5.10;;;1.70;;
30307;SDS011;17114;52.314;8.910;2022-08-03T11:49:58;5.45;;;1.63;;
30307;SDS011;17114;52.314;8.910;2022-08-03T11:52:33;6.05;;;2.10;;
30307;SDS011;17114;52.314;8.910;2022-08-03T11:55:02;3.80;;;1.90;;
30307;SDS011;17114;52.314;8.910;2022-08-03T11:57:37;6.47;;;1.77;;
30307;SDS011;17114;52.314;8.910;2022-08-03T12:00:26;5.43;;;1.67;;
30307;SDS011;17114;52.314;8.910;2022-08-03T12:03:01;4.93;;;1.45;;
30307;SDS011;17114;52.314;8.910;2022-08-03T12:06:07;4.68;;;1.80;;
30307;SDS011;17114;52.314;8.910;2022-08-03T12:10:58;3.83;;;1.70;;
30307;SDS011;17114;52.314;8.910;2022-08-03T12:13:26;4.35;;;1.83;;
30307;SDS011;17114;52.314;8.910;2022-08-03T12:19:03;2.78;;;1.55;;
30307;SDS011;17114;52.314;8.910;2022-08-03T12:21:32;4.50;;;1.80;;
30307;SDS011;17114;52.314;8.910;2022-08-03T12:24:00;4.63;;;1.70;;
30307;SDS011;17114;52.314;8.910;2022-08-03T12:26:29;4.55;;;1.73;;
30307;SDS011;17114;52.314;8.910;2022-08-03T12:29:15;5.88;;;1.90;;
30307;SDS011;17114;52.314;8.910;2022-08-03T12:31:46;4.47;;;1.58;;
30307;SDS011;17114;52.314;8.910;2022-08-03T12:34:13;7.20;;;1.63;;
30307;SDS011;17114;52.314;8.910;2022-08-03T12:36:54;6.72;;;1.80;;
30307;SDS011;17114;52.314;8.910;2022-08-03T12:39:22;7.03;;;1.85;;
30307;SDS011;17114;52.314;8.910;2022-08-03T12:41:54;3.00;;;2.03;;
30307;SDS011;17114;52.314;8.910;2022-08-03T12:44:29;7.25;;;1.77;;
30307;SDS011;17114;52.314;8.910;2022-08-03T12:46:57;7.45;;;1.80;;
30307;SDS011;17114;52.314;8.910;2022-08-03T12:49:25;7.00;;;1.90;;
30307;SDS011;17114;52.314;8.910;2022-08-03T12:54:29;3.20;;;1.60;;
30307;SDS011;17114;52.314;8.910;2022-08-03T12:56:58;5.55;;;1.83;;
30307;SDS011;17114;52.314;8.910;2022-08-03T12:59:44;6.55;;;1.80;;
30307;SDS011;17114;52.314;8.910;2022-08-03T13:02:23;3.70;;;1.60;;
30307;SDS011;17114;52.314;8.910;2022-08-03T13:04:52;5.38;;;2.10;;
30307;SDS011;17114;52.314;8.910;2022-08-03T13:07:20;3.53;;;1.73;;
30307;SDS011;17114;52.314;8.910;2022-08-03T13:09:54;4.28;;;1.90;;
30307;SDS011;17114;52.314;8.910;2022-08-03T13:12:22;3.72;;;1.83;;
30307;SDS011;17114;52.314;8.910;2022-08-03T13:14:55;3.33;;;1.73;;
30307;SDS011;17114;52.314;8.910;2022-08-03T13:17:26;8.15;;;2.15;;
30307;SDS011;17114;52.314;8.910;2022-08-03T13:19:53;6.95;;;2.33;;
30307;SDS011;17114;52.314;8.910;2022-08-03T13:22:23;5.68;;;1.90;;
30307;SDS011;17114;52.314;8.910;2022-08-03T13:24:54;5.10;;;2.00;;
30307;SDS011;17114;52.314;8.910;2022-08-03T13:27:23;5.72;;;2.42;;
30307;SDS011;17114;52.314;8.910;2022-08-03T13:30:10;6.78;;;2.30;;
30307;SDS011;17114;52.314;8.910;2022-08-03T13:32:38;3.92;;;2.00;;
30307;SDS011;17114;52.314;8.910;2022-08-03T13:35:05;8.68;;;1.98;;
30307;SDS011;17114;52.314;8.910;2022-08-03T13:37:34;5.22;;;2.08;;
30307;SDS011;17114;52.314;8.910;2022-08-03T13:40:01;7.10;;;2.40;;
30307;SDS011;17114;52.314;8.910;2022-08-03T13:42:31;5.78;;;2.08;;
30307;SDS011;17114;52.314;8.910;2022-08-03T13:45:00;5.03;;;1.90;;
30307;SDS011;17114;52.314;8.910;2022-08-03T13:47:29;5.35;;;2.03;;
30307;SDS011;17114;52.314;8.910;2022-08-03T13:49:56;8.70;;;2.35;;
30307;SDS011;17114;52.314;8.910;2022-08-03T13:52:27;4.82;;;2.15;;
30307;SDS011;17114;52.314;8.910;2022-08-03T13:54:58;6.13;;;2.33;;
30307;SDS011;17114;52.314;8.910;2022-08-03T13:57:25;5.32;;;2.15;;
30307;SDS011;17114;52.314;8.910;2022-08-03T14:00:13;4.35;;;1.80;;
30307;SDS011;17114;52.314;8.910;2022-08-03T14:02:57;3.60;;;2.10;;
30307;SDS011;17114;52.314;8.910;2022-08-03T14:05:37;5.25;;;1.95;;
30307;SDS011;17114;52.314;8.910;2022-08-03T14:08:05;4.85;;;2.00;;
30307;SDS011;17114;52.314;8.910;2022-08-03T14:10:33;7.25;;;2.30;;
30307;SDS011;17114;52.314;8.910;2022-08-03T14:13:01;5.00;;;1.88;;
30307;SDS011;17114;52.314;8.910;2022-08-03T14:15:29;8.45;;;2.17;;
30307;SDS011;17114;52.314;8.910;2022-08-03T14:17:56;3.60;;;2.00;;
30307;SDS011;17114;52.314;8.910;2022-08-03T14:20:24;4.15;;;2.03;;
30307;SDS011;17114;52.314;8.910;2022-08-03T14:23:04;7.72;;;2.45;;
30307;SDS011;17114;52.314;8.910;2022-08-03T14:25:32;7.35;;;2.25;;
30307;SDS011;17114;52.314;8.910;2022-08-03T14:28:15;4.57;;;2.10;;
30307;SDS011;17114;52.314;8.910;2022-08-03T14:30:44;4.35;;;2.08;;
30307;SDS011;17114;52.314;8.910;2022-08-03T14:33:11;8.18;;;2.10;;
30307;SDS011;17114;52.314;8.910;2022-08-03T14:35:38;6.80;;;2.08;;
30307;SDS011;17114;52.314;8.910;2022-08-03T14:38:05;7.05;;;2.03;;
30307;SDS011;17114;52.314;8.910;2022-08-03T14:40:32;3.67;;;1.70;;
30307;SDS011;17114;52.314;8.910;2022-08-03T14:42:59;7.30;;;2.00;;
30307;SDS011;17114;52.314;8.910;2022-08-03T14:45:26;6.30;;;1.95;;
30307;SDS011;17114;52.314;8.910;2022-08-03T14:47:53;4.22;;;1.98;;
30307;SDS011;17114;52.314;8.910;2022-08-03T14:50:39;6.88;;;2.35;;
30307;SDS011;17114;52.314;8.910;2022-08-03T14:53:15;6.07;;;2.03;;
30307;SDS011;17114;52.314;8.910;2022-08-03T14:55:46;5.95;;;2.00;;
30307;SDS011;17114;52.314;8.910;2022-08-03T14:58:17;4.00;;;1.73;;
30307;SDS011;17114;52.314;8.910;2022-08-03T15:00:47;4.45;;;1.80;;
30307;SDS011;17114;52.314;8.910;2022-08-03T15:03:15;6.82;;;2.03;;
30307;SDS011;17114;52.314;8.910;2022-08-03T15:05:45;5.53;;;2.00;;
30307;SDS011;17114;52.314;8.910;2022-08-03T15:08:12;8.95;;;2.50;;
30307;SDS011;17114;52.314;8.910;2022-08-03T15:10:39;6.30;;;2.50;;
30307;SDS011;17114;52.314;8.910;2022-08-03T15:13:13;5.03;;;1.83;;
30307;SDS011;17114;52.314;8.910;2022-08-03T15:15:41;4.82;;;1.98;;
30307;SDS011;17114;52.314;8.910;2022-08-03T15:18:08;3.60;;;1.92;;
30307;SDS011;17114;52.314;8.910;2022-08-03T15:20:35;7.13;;;2.58;;
30307;SDS011;17114;52.314;8.910;2022-08-03T15:23:11;5.57;;;2.10;;
30307;SDS011;17114;52.314;8.910;2022-08-03T15:25:39;4.50;;;2.00;;
30307;SDS011;17114;52.314;8.910;2022-08-03T15:28:27;6.00;;;1.80;;
30307;SDS011;17114;52.314;8.910;2022-08-03T15:30:54;4.95;;;1.80;;
30307;SDS011;17114;52.314;8.910;2022-08-03T15:33:21;5.88;;;2.05;;
30307;SDS011;17114;52.314;8.910;2022-08-03T15:35:48;4.07;;;1.90;;
30307;SDS011;17114;52.314;8.910;2022-08-03T15:38:15;5.78;;;2.10;;
30307;SDS011;17114;52.314;8.910;2022-08-03T15:40:42;6.00;;;1.90;;
30307;SDS011;17114;52.314;8.910;2022-08-03T15:43:10;5.75;;;2.22;;
30307;SDS011;17114;52.314;8.910;2022-08-03T15:45:37;6.65;;;2.20;;
30307;SDS011;17114;52.314;8.910;2022-08-03T15:48:07;4.60;;;2.45;;
30307;SDS011;17114;52.314;8.910;2022-08-03T15:50:34;8.55;;;2.45;;
30307;SDS011;17114;52.314;8.910;2022-08-03T15:53:01;2.92;;;2.00;;
30307;SDS011;17114;52.314;8.910;2022-08-03T15:55:28;7.60;;;2.60;;
30307;SDS011;17114;52.314;8.910;2022-08-03T15:57:56;5.65;;;2.10;;
30307;SDS011;17114;52.314;8.910;2022-08-03T16:00:43;7.45;;;2.38;;
30307;SDS011;17114;52.314;8.910;2022-08-03T16:03:11;4.72;;;1.98;;
30307;SDS011;17114;52.314;8.910;2022-08-03T16:05:38;5.78;;;2.10;;
30307;SDS011;17114;52.314;8.910;2022-08-03T16:08:05;6.95;;;2.08;;
30307;SDS011;17114;52.314;8.910;2022-08-03T16:10:38;5.90;;;2.10;;
30307;SDS011;17114;52.314;8.910;2022-08-03T16:13:06;4.70;;;2.20;;
30307;SDS011;17114;52.314;8.910;2022-08-03T16:15:33;7.22;;;2.13;;
30307;SDS011;17114;52.314;8.910;2022-08-03T16:18:04;4.63;;;2.28;;
30307;SDS011;17114;52.314;8.910;2022-08-03T16:20:32;3.63;;;2.08;;